createdAt,value
2019-04-07T00:03:13.907Z,12.66
2019-04-07T00:08:19.551Z,12.61
2019-04-07T00:13:25.182Z,12.55
2019-04-07T00:18:30.827Z,12.51
2019-04-07T00:23:36.254Z,12.47
2019-04-07T00:28:42.116Z,12.41
2019-04-07T00:33:47.631Z,12.36
2019-04-07T00:38:53.087Z,12.33
2019-04-07T00:43:58.530Z,12.28
2019-04-07T00:49:04.068Z,12.25
2019-04-07T00:54:09.937Z,12.21
2019-04-07T00:59:15.452Z,12.17
2019-04-07T01:04:21.116Z,12.12
2019-04-07T01:09:26.536Z,12.07
2019-04-07T01:14:32.385Z,12.04
2019-04-07T01:19:38.121Z,12.02
2019-04-07T01:24:44.056Z,12.01
2019-04-07T01:29:49.472Z,12.01
2019-04-07T01:34:54.888Z,12.00
2019-04-07T01:40:00.452Z,11.99
2019-04-07T01:45:34.384Z,11.96
2019-04-07T01:51:04.540Z,11.89
2019-04-07T01:56:24.110Z,11.80
2019-04-07T02:01:48.128Z,11.76
2019-04-07T02:07:05.892Z,11.75
2019-04-07T02:12:33.427Z,11.69
2019-04-07T02:17:48.142Z,11.61
2019-04-07T02:23:15.462Z,11.54
2019-04-07T02:28:38.383Z,11.48
2019-04-07T02:33:48.864Z,11.44
2019-04-07T02:39:11.909Z,11.41
2019-04-07T02:44:37.026Z,11.36
2019-04-07T02:49:52.916Z,11.34
2019-04-07T02:55:15.914Z,11.33
2019-04-07T03:00:43.270Z,11.33
2019-04-07T03:06:14.664Z,11.33
2019-04-07T03:11:37.305Z,11.36
2019-04-07T03:17:00.360Z,11.48
2019-04-07T03:22:34.288Z,11.65
2019-04-07T03:27:57.369Z,11.81
2019-04-07T03:33:14.113Z,11.97
2019-04-07T03:38:31.382Z,12.09
2019-04-07T03:43:42.712Z,12.19
2019-04-07T03:48:56.467Z,12.24
2019-04-07T03:54:21.093Z,12.28
2019-04-07T03:59:54.411Z,12.29
2019-04-07T04:05:17.449Z,12.31
2019-04-07T04:10:27.231Z,12.31
2019-04-07T04:15:46.902Z,12.28
2019-04-07T04:20:52.854Z,12.21
2019-04-07T04:25:59.009Z,12.11
2019-04-07T04:31:04.736Z,11.99
2019-04-07T04:36:10.215Z,11.85
2019-04-07T04:41:16.788Z,11.69
2019-04-07T04:46:22.320Z,11.55
2019-04-07T04:51:28.176Z,11.47
2019-04-07T04:56:33.711Z,11.38
2019-04-07T05:01:39.742Z,11.33
2019-04-07T05:06:45.566Z,11.30
2019-04-07T05:11:52.785Z,11.32
2019-04-07T05:16:58.599Z,11.40
2019-04-07T05:22:04.955Z,11.53
2019-04-07T05:27:10.682Z,11.69
2019-04-07T05:32:16.895Z,11.87
2019-04-07T05:37:23.007Z,12.07
2019-04-07T05:42:28.874Z,12.34
2019-04-07T05:47:34.326Z,12.66
2019-04-07T05:52:40.815Z,13.04
2019-04-07T05:57:46.558Z,13.49
2019-04-07T06:02:52.757Z,13.97
2019-04-07T06:08:02.699Z,14.44
2019-04-07T06:13:05.450Z,14.86
2019-04-07T06:18:11.712Z,15.33
2019-04-07T06:23:17.776Z,16.20
2019-04-07T06:28:23.787Z,17.58
2019-04-07T06:33:29.741Z,18.98
2019-04-07T06:38:41.018Z,20.29
2019-04-07T06:43:43.159Z,21.44
2019-04-07T06:49:19.714Z,22.87
2019-04-07T06:54:53.503Z,24.36
2019-04-07T07:00:20.593Z,25.62
2019-04-07T07:05:53.664Z,26.72
2019-04-07T07:11:26.494Z,27.86
2019-04-07T07:16:46.150Z,28.93
2019-04-07T07:22:15.511Z,30.10
2019-04-07T07:27:17.881Z,31.32
2019-04-07T07:32:23.679Z,32.39
2019-04-07T07:37:30.058Z,33.46
2019-04-07T07:42:36.534Z,34.67
2019-04-07T07:47:42.661Z,35.56
2019-04-07T07:52:51.339Z,35.88
2019-04-07T07:57:58.914Z,36.43
2019-04-07T08:03:04.892Z,37.33
2019-04-07T08:08:11.500Z,37.33
2019-04-07T08:13:17.888Z,38.01
2019-04-07T08:18:23.772Z,39.67
2019-04-07T08:23:29.732Z,40.99
2019-04-07T08:28:36.127Z,41.68
2019-04-07T08:33:43.272Z,42.50
2019-04-07T08:38:51.785Z,43.24
2019-04-07T08:43:57.743Z,43.40
2019-04-07T08:49:03.717Z,43.52
2019-04-07T08:54:09.911Z,44.48
2019-04-07T08:59:17.057Z,46.31
2019-04-07T09:04:23.110Z,48.08
2019-04-07T09:09:34.043Z,49.54
2019-04-07T09:14:38.762Z,49.58
2019-04-07T09:20:10.566Z,49.84
2019-04-07T09:25:40.723Z,49.79
2019-04-07T09:31:04.810Z,49.64
2019-04-07T09:36:20.799Z,49.79
2019-04-07T09:41:36.415Z,48.33
2019-04-07T09:46:54.152Z,46.52
2019-04-07T09:52:22.125Z,44.44
2019-04-07T09:57:46.150Z,40.37
2019-04-07T10:03:18.274Z,36.66
2019-04-07T10:08:48.537Z,32.91
2019-04-07T10:14:22.960Z,29.82
2019-04-07T10:19:57.756Z,27.60
2019-04-07T10:25:19.972Z,26.37
2019-04-07T10:30:45.985Z,25.43
2019-04-07T10:36:19.475Z,25.05
2019-04-07T10:41:42.727Z,24.80
2019-04-07T10:47:12.920Z,24.48
2019-04-07T10:52:41.250Z,23.95
2019-04-07T10:58:03.130Z,23.44
2019-04-07T11:03:21.357Z,23.18
2019-04-07T11:08:44.445Z,22.98
2019-04-07T11:14:05.872Z,23.00
2019-04-07T11:19:20.749Z,23.00
2019-04-07T11:24:53.570Z,22.95
2019-04-07T11:30:05.366Z,22.89
2019-04-07T11:35:45.580Z,22.78
2019-04-07T11:41:15.724Z,22.68
2019-04-07T11:46:34.109Z,22.76
2019-04-07T11:51:47.867Z,22.74
2019-04-07T11:57:05.790Z,22.78
2019-04-07T12:02:30.786Z,22.88
2019-04-07T12:07:56.749Z,22.92
2019-04-07T12:13:20.032Z,22.94
2019-04-07T12:18:53.696Z,23.06
2019-04-07T12:24:29.510Z,23.21
2019-04-07T12:29:51.805Z,23.31
2019-04-07T12:35:17.177Z,23.28
2019-04-07T12:40:32.409Z,23.15
2019-04-07T12:46:09.028Z,23.06
2019-04-07T12:51:37.489Z,23.09
2019-04-07T12:56:53.441Z,23.25
2019-04-07T13:02:21.384Z,23.52
2019-04-07T13:07:48.415Z,23.80
2019-04-07T13:13:32.492Z,23.87
2019-04-07T13:18:54.402Z,23.68
2019-04-07T13:24:12.841Z,23.56
2019-04-07T13:29:40.131Z,23.61
2019-04-07T13:35:03.231Z,23.70
2019-04-07T13:40:26.291Z,23.89
2019-04-07T13:45:49.436Z,24.16
2019-04-07T13:51:12.956Z,24.27
2019-04-07T13:56:37.090Z,24.20
2019-04-07T14:01:59.134Z,24.31
2019-04-07T14:07:25.220Z,24.28
2019-04-07T14:12:50.553Z,24.20
2019-04-07T14:18:04.750Z,24.20
2019-04-07T14:23:35.347Z,24.19
2019-04-07T14:29:08.692Z,24.23
2019-04-07T14:34:45.490Z,24.48
2019-04-07T14:40:03.606Z,24.91
2019-04-07T14:45:40.628Z,25.04
2019-04-07T14:51:08.204Z,24.98
2019-04-07T14:56:21.925Z,24.79
2019-04-07T15:01:52.378Z,24.50
2019-04-07T15:07:14.148Z,24.27
2019-04-07T15:12:26.649Z,24.02
2019-04-07T15:17:33.006Z,23.72
2019-04-07T15:22:38.966Z,23.52
2019-04-07T15:27:45.568Z,23.50
2019-04-07T15:32:51.592Z,23.49
2019-04-07T15:37:57.227Z,23.45
2019-04-07T15:43:05.531Z,23.50
2019-04-07T15:48:10.342Z,23.54
2019-04-07T15:53:16.626Z,23.61
2019-04-07T15:58:22.615Z,23.65
2019-04-07T16:03:28.768Z,23.77
2019-04-07T16:08:34.942Z,23.75
2019-04-07T16:13:40.545Z,23.57
2019-04-07T16:18:46.635Z,23.39
2019-04-07T16:23:54.010Z,23.31
2019-04-07T16:28:59.275Z,23.35
2019-04-07T16:34:07.561Z,23.39
2019-04-07T16:39:11.928Z,23.36
2019-04-07T16:44:17.474Z,23.31
2019-04-07T16:49:23.640Z,23.22
2019-04-07T16:54:30.183Z,23.10
2019-04-07T16:59:36.651Z,22.95
2019-04-07T17:04:43.065Z,22.82
2019-04-07T17:09:48.919Z,22.70
2019-04-07T17:14:54.403Z,22.55
2019-04-07T17:20:00.672Z,22.40
2019-04-07T17:25:09.246Z,22.27
2019-04-07T17:30:16.856Z,22.15
2019-04-07T17:35:23.250Z,22.00
2019-04-07T17:40:32.857Z,21.89
2019-04-07T17:45:56.335Z,21.75
2019-04-07T17:51:16.658Z,21.63
2019-04-07T17:56:36.916Z,21.51
2019-04-07T18:02:04.473Z,21.36
2019-04-07T18:07:35.635Z,21.18
2019-04-07T18:13:07.429Z,20.96
2019-04-07T18:18:31.819Z,20.72
2019-04-07T18:23:58.762Z,20.52
2019-04-07T18:29:11.212Z,20.29
2019-04-07T18:34:47.297Z,20.12
2019-04-07T18:40:21.111Z,19.95
2019-04-07T18:45:36.990Z,19.77
2019-04-07T18:51:02.979Z,19.60
2019-04-07T18:56:27.165Z,19.44
2019-04-07T19:02:04.343Z,19.33
2019-04-07T19:07:30.460Z,19.23
2019-04-07T19:13:03.253Z,19.14
2019-04-07T19:18:23.547Z,19.05
2019-04-07T19:23:58.666Z,18.96
2019-04-07T19:29:25.057Z,18.81
2019-04-07T19:35:02.173Z,18.67
2019-04-07T19:40:26.941Z,18.51
2019-04-07T19:45:45.136Z,18.36
2019-04-07T19:51:08.781Z,18.23
2019-04-07T19:56:48.171Z,18.12
2019-04-07T20:02:15.692Z,18.00
2019-04-07T20:07:46.239Z,17.93
2019-04-07T20:13:15.339Z,17.86
2019-04-07T20:18:39.859Z,17.79
2019-04-07T20:23:55.226Z,17.77
2019-04-07T20:29:12.005Z,17.69
2019-04-07T20:34:51.440Z,17.57
2019-04-07T20:40:10.289Z,17.44
2019-04-07T20:45:47.208Z,17.30
2019-04-07T20:51:06.156Z,17.15
2019-04-07T20:56:31.448Z,16.98
2019-04-07T21:02:02.502Z,16.85
2019-04-07T21:07:28.914Z,16.69
2019-04-07T21:12:52.759Z,16.58
2019-04-07T21:18:12.613Z,16.51
2019-04-07T21:23:39.847Z,16.44
2019-04-07T21:29:10.500Z,16.40
2019-04-07T21:34:36.497Z,16.34
2019-04-07T21:40:10.034Z,16.25
2019-04-07T21:45:39.867Z,16.16
2019-04-07T21:51:00.968Z,16.11
2019-04-07T21:56:31.178Z,16.06
2019-04-07T22:01:47.568Z,16.01
2019-04-07T22:07:11.166Z,15.95
2019-04-07T22:12:16.911Z,15.86
2019-04-07T22:17:23.403Z,15.73
2019-04-07T22:22:29.067Z,15.62
2019-04-07T22:27:34.704Z,15.53
2019-04-07T22:32:40.721Z,15.42
2019-04-07T22:37:48.344Z,15.32
2019-04-07T22:42:54.158Z,15.19
2019-04-07T22:47:59.788Z,15.09
2019-04-07T22:53:05.258Z,14.98
2019-04-07T22:58:10.698Z,14.87
2019-04-07T23:03:16.183Z,14.75
2019-04-07T23:08:21.783Z,14.64
2019-04-07T23:13:27.983Z,14.55
2019-04-07T23:18:33.553Z,14.44
2019-04-07T23:23:39.686Z,14.36
2019-04-07T23:28:47.061Z,14.26
2019-04-07T23:33:52.638Z,14.17
2019-04-07T23:38:58.155Z,14.06
2019-04-07T23:44:03.581Z,13.96
2019-04-07T23:49:09.933Z,13.87
2019-04-07T23:54:16.439Z,13.81
2019-04-07T23:59:22.792Z,13.72
